createdAt,value
2023-05-01T00:00:22.488Z,25.18
2023-05-01T00:01:22.533Z,25.17
2023-05-01T00:02:22.587Z,25.18
2023-05-01T00:03:22.629Z,25.17
2023-05-01T00:04:22.620Z,25.18
2023-05-01T00:05:22.581Z,25.18
2023-05-01T00:06:22.638Z,25.17
2023-05-01T00:07:22.634Z,25.18
2023-05-01T00:08:22.603Z,25.18
2023-05-01T00:09:22.664Z,25.17
2023-05-01T00:10:22.696Z,25.15
2023-05-01T00:11:22.712Z,25.18
2023-05-01T00:12:22.710Z,25.18
2023-05-01T00:13:22.745Z,25.18
2023-05-01T00:14:22.726Z,25.17
2023-05-01T00:15:22.772Z,25.17
2023-05-01T00:16:22.832Z,25.17
2023-05-01T00:17:22.830Z,25.15
2023-05-01T00:18:22.795Z,25.14
2023-05-01T00:19:22.826Z,25.18
2023-05-01T00:20:22.859Z,25.17
2023-05-01T00:21:22.859Z,25.17
2023-05-01T00:22:22.911Z,25.17
2023-05-01T00:23:22.939Z,25.17
2023-05-01T00:24:22.954Z,25.18
2023-05-01T00:25:22.958Z,25.17
2023-05-01T00:26:23.000Z,25.17
2023-05-01T00:27:23.042Z,25.17
2023-05-01T00:28:23.061Z,25.15
2023-05-01T00:29:23.085Z,25.15
2023-05-01T00:30:23.116Z,25.14
2023-05-01T00:31:23.210Z,25.14
2023-05-01T00:32:23.252Z,25.15
2023-05-01T00:33:23.240Z,25.15
2023-05-01T00:34:23.192Z,25.17
2023-05-01T00:35:23.188Z,25.12
2023-05-01T00:36:23.203Z,25.14
2023-05-01T00:37:23.241Z,25.14
2023-05-01T00:38:23.291Z,25.15
2023-05-01T00:39:23.282Z,25.12
2023-05-01T00:40:23.294Z,25.15
2023-05-01T00:41:23.330Z,25.15
2023-05-01T00:42:23.375Z,25.15
2023-05-01T00:43:23.358Z,25.15
2023-05-01T00:44:23.361Z,25.14
2023-05-01T00:45:23.422Z,25.15
2023-05-01T00:46:23.514Z,25.15
2023-05-01T00:47:23.465Z,25.14
2023-05-01T00:48:23.476Z,25.12
2023-05-01T00:49:23.465Z,25.12
2023-05-01T00:50:23.522Z,25.14
2023-05-01T00:51:23.544Z,25.14
2023-05-01T00:52:23.556Z,25.14
2023-05-01T00:53:23.619Z,25.12
2023-05-01T00:54:23.613Z,25.15
2023-05-01T00:55:23.645Z,25.14
2023-05-01T00:56:23.681Z,25.11
2023-05-01T00:57:23.712Z,25.12
2023-05-01T00:58:25.295Z,25.11
2023-05-01T00:59:23.816Z,25.11
2023-05-01T01:00:23.773Z,25.14
2023-05-01T01:01:23.880Z,25.11
2023-05-01T01:02:23.845Z,25.14
2023-05-01T01:03:23.882Z,25.14
2023-05-01T01:04:23.933Z,25.14
2023-05-01T01:05:23.922Z,25.12
2023-05-01T01:06:23.999Z,25.12
2023-05-01T01:07:23.983Z,25.14
2023-05-01T01:08:24.011Z,25.14
2023-05-01T01:09:24.047Z,25.14
2023-05-01T01:10:24.029Z,25.12
2023-05-01T01:11:24.088Z,25.14
2023-05-01T01:12:24.127Z,25.14
2023-05-01T01:13:24.118Z,25.14
2023-05-01T01:14:24.166Z,25.09
2023-05-01T01:15:24.222Z,25.12
2023-05-01T01:16:24.297Z,25.12
2023-05-01T01:17:24.258Z,25.11
2023-05-01T01:18:24.280Z,25.12
2023-05-01T01:19:24.275Z,25.09
2023-05-01T01:20:24.313Z,25.14
2023-05-01T01:21:24.332Z,25.11
2023-05-01T01:22:24.363Z,25.12
2023-05-01T01:23:24.373Z,25.11
2023-05-01T01:24:24.413Z,25.11
2023-05-01T01:25:24.432Z,25.12
2023-05-01T01:26:24.441Z,25.11
2023-05-01T01:27:24.493Z,25.12
2023-05-01T01:28:24.467Z,25.14
2023-05-01T01:29:24.482Z,25.09
2023-05-01T01:30:24.510Z,25.14
2023-05-01T01:31:24.586Z,25.12
2023-05-01T01:32:24.585Z,25.12
2023-05-01T01:33:24.644Z,25.11
2023-05-01T01:34:24.577Z,25.11
2023-05-01T01:35:24.625Z,25.12
2023-05-01T01:36:24.653Z,25.11
2023-05-01T01:37:24.686Z,25.12
2023-05-01T01:38:24.725Z,25.09
2023-05-01T01:39:24.740Z,25.11
2023-05-01T01:40:24.744Z,25.09
2023-05-01T01:41:24.735Z,25.11
2023-05-01T01:42:24.771Z,25.11
2023-05-01T01:43:24.794Z,25.09
2023-05-01T01:44:24.842Z,25.12
2023-05-01T01:45:24.869Z,25.12
2023-05-01T01:46:24.911Z,25.11
2023-05-01T01:47:24.977Z,25.11
2023-05-01T01:48:24.945Z,25.11
2023-05-01T01:49:24.975Z,25.11
2023-05-01T01:50:24.985Z,25.14
2023-05-01T01:51:25.004Z,25.11
2023-05-01T01:52:25.036Z,25.09
2023-05-01T01:53:25.134Z,25.11
2023-05-01T01:54:25.055Z,25.11
2023-05-01T01:55:25.079Z,25.09
2023-05-01T01:56:25.102Z,25.08
2023-05-01T01:57:25.165Z,25.11
2023-05-01T01:58:25.144Z,25.11
2023-05-01T01:59:25.184Z,25.08
2023-05-01T02:00:25.197Z,25.11
2023-05-01T02:01:25.294Z,25.12
2023-05-01T02:02:25.304Z,25.14
2023-05-01T02:03:25.440Z,25.12
2023-05-01T02:04:25.274Z,25.12
2023-05-01T02:05:25.306Z,25.11
2023-05-01T02:06:25.419Z,25.12
2023-05-01T02:07:25.383Z,25.09
2023-05-01T02:08:25.434Z,25.14
2023-05-01T02:09:25.391Z,25.09
2023-05-01T02:10:25.442Z,25.09
2023-05-01T02:11:25.440Z,25.11
2023-05-01T02:12:25.485Z,25.11
2023-05-01T02:13:25.476Z,25.09
2023-05-01T02:14:25.521Z,25.11
2023-05-01T02:15:25.565Z,25.11
2023-05-01T02:16:25.654Z,25.09
2023-05-01T02:17:25.606Z,25.11
2023-05-01T02:18:25.608Z,25.11
2023-05-01T02:19:25.618Z,25.11
2023-05-01T02:20:25.683Z,25.11
2023-05-01T02:21:25.678Z,25.08
2023-05-01T02:22:25.734Z,25.11
2023-05-01T02:23:25.745Z,25.08
2023-05-01T02:24:25.758Z,25.11
2023-05-01T02:25:26.614Z,25.09
2023-05-01T02:26:25.820Z,25.12
2023-05-01T02:27:25.828Z,25.11
2023-05-01T02:28:25.881Z,25.09
2023-05-01T02:29:25.868Z,25.08
2023-05-01T02:30:25.933Z,25.08
2023-05-01T02:31:25.952Z,25.07
2023-05-01T02:32:26.024Z,25.09
2023-05-01T02:33:26.024Z,25.11
2023-05-01T02:34:26.072Z,25.08
2023-05-01T02:35:26.037Z,25.08
2023-05-01T02:36:26.105Z,25.09
2023-05-01T02:37:26.132Z,25.08
2023-05-01T02:38:26.165Z,25.09
2023-05-01T02:39:26.190Z,25.09
2023-05-01T02:40:26.185Z,25.08
2023-05-01T02:41:26.275Z,25.08
2023-05-01T02:42:26.279Z,25.09
2023-05-01T02:43:26.311Z,25.08
2023-05-01T02:44:26.365Z,25.09
2023-05-01T02:45:26.389Z,25.07
2023-05-01T02:46:26.472Z,25.09
2023-05-01T02:47:26.539Z,25.07
2023-05-01T02:48:26.441Z,25.07
2023-05-01T02:49:26.484Z,25.09
2023-05-01T02:50:26.549Z,25.08
2023-05-01T02:51:26.530Z,25.08
2023-05-01T02:52:26.582Z,25.08
2023-05-01T02:53:26.634Z,25.08
2023-05-01T02:54:26.609Z,25.08
2023-05-01T02:55:26.676Z,25.07
2023-05-01T02:56:26.716Z,25.07
2023-05-01T02:57:26.691Z,25.09
2023-05-01T02:58:26.754Z,25.08
2023-05-01T02:59:26.760Z,25.07
2023-05-01T03:00:26.791Z,25.08
2023-05-01T03:01:26.872Z,25.11
2023-05-01T03:02:26.892Z,25.07
2023-05-01T03:03:26.890Z,25.09
2023-05-01T03:04:26.974Z,25.08
2023-05-01T03:05:26.983Z,25.08
2023-05-01T03:06:26.993Z,25.08
2023-05-01T03:07:27.015Z,25.08
2023-05-01T03:08:27.052Z,25.09
2023-05-01T03:09:27.094Z,25.08
2023-05-01T03:10:27.110Z,25.09
2023-05-01T03:11:27.154Z,25.08
2023-05-01T03:12:27.182Z,25.08
2023-05-01T03:13:27.201Z,25.07
2023-05-01T03:14:27.219Z,25.09
2023-05-01T03:15:27.255Z,25.09
2023-05-01T03:16:27.420Z,25.07
2023-05-01T03:17:27.342Z,25.08
2023-05-01T03:18:27.365Z,25.08
2023-05-01T03:19:27.377Z,25.08
2023-05-01T03:20:27.699Z,25.07
2023-05-01T03:21:27.414Z,25.07
2023-05-01T03:22:27.472Z,25.05
2023-05-01T03:23:27.506Z,25.08
2023-05-01T03:24:27.519Z,25.08
2023-05-01T03:25:27.539Z,25.08
2023-05-01T03:26:27.558Z,25.07
2023-05-01T03:27:27.593Z,25.07
2023-05-01T03:28:27.611Z,25.05
2023-05-01T03:29:27.666Z,25.07
2023-05-01T03:30:27.660Z,25.07
2023-05-01T03:31:27.709Z,25.08
2023-05-01T03:32:27.886Z,25.07
2023-05-01T03:33:27.771Z,25.07
2023-05-01T03:34:27.783Z,25.11
2023-05-01T03:35:27.856Z,25.09
2023-05-01T03:36:27.857Z,25.07
2023-05-01T03:37:27.887Z,25.07
2023-05-01T03:38:27.942Z,25.05
2023-05-01T03:39:27.940Z,25.05
2023-05-01T03:40:27.954Z,25.07
2023-05-01T03:41:28.012Z,25.09
2023-05-01T03:42:28.054Z,25.08
2023-05-01T03:43:28.052Z,25.08
2023-05-01T03:44:28.085Z,25.08
2023-05-01T03:45:28.102Z,25.08
2023-05-01T03:46:28.183Z,25.08
2023-05-01T03:47:28.165Z,25.08
2023-05-01T03:48:28.209Z,25.09
2023-05-01T03:49:28.228Z,25.07
2023-05-01T03:50:28.281Z,25.08
2023-05-01T03:51:28.275Z,25.09
2023-05-01T03:52:28.307Z,25.07
2023-05-01T03:53:28.348Z,25.07
2023-05-01T03:54:28.356Z,25.07
2023-05-01T03:55:28.382Z,25.07
2023-05-01T03:56:28.401Z,25.08
2023-05-01T03:57:28.426Z,25.08
2023-05-01T03:58:28.464Z,25.05
2023-05-01T03:59:28.458Z,25.07
2023-05-01T04:00:28.501Z,25.05
2023-05-01T04:01:28.505Z,25.05
2023-05-01T04:02:28.692Z,25.08
2023-05-01T04:03:28.679Z,25.07
2023-05-01T04:04:28.666Z,25.08
2023-05-01T04:05:28.639Z,25.07
2023-05-01T04:06:30.475Z,25.07
2023-05-01T04:07:28.636Z,25.05
2023-05-01T04:08:28.694Z,25.08
2023-05-01T04:09:28.719Z,25.07
2023-05-01T04:10:28.714Z,25.05
2023-05-01T04:11:28.778Z,25.07
2023-05-01T04:12:28.784Z,25.05
2023-05-01T04:13:28.790Z,25.08
2023-05-01T04:14:28.839Z,25.07
2023-05-01T04:15:28.856Z,25.05
2023-05-01T04:16:29.007Z,25.05
2023-05-01T04:17:28.882Z,25.05
2023-05-01T04:18:28.921Z,25.05
2023-05-01T04:19:28.956Z,25.07
2023-05-01T04:20:28.992Z,25.05
2023-05-01T04:21:28.998Z,25.05
2023-05-01T04:22:28.998Z,25.05
2023-05-01T04:23:29.023Z,25.05
2023-05-01T04:24:29.043Z,25.07
2023-05-01T04:25:29.068Z,25.05
2023-05-01T04:26:29.119Z,25.08
2023-05-01T04:27:29.111Z,25.05
2023-05-01T04:28:29.117Z,25.08
2023-05-01T04:29:29.153Z,25.07
2023-05-01T04:30:29.178Z,25.07
2023-05-01T04:31:29.274Z,25.07
2023-05-01T04:32:29.295Z,25.08
2023-05-01T04:33:29.254Z,25.07
2023-05-01T04:34:29.306Z,25.08
2023-05-01T04:35:29.297Z,25.08
2023-05-01T04:36:29.335Z,25.07
2023-05-01T04:37:29.370Z,25.04
2023-05-01T04:38:29.408Z,25.07
2023-05-01T04:39:29.410Z,25.07
2023-05-01T04:40:29.433Z,25.07
2023-05-01T04:41:29.526Z,25.07
2023-05-01T04:42:29.491Z,25.07
2023-05-01T04:43:29.502Z,25.08
2023-05-01T04:44:29.537Z,25.07
2023-05-01T04:45:29.510Z,25.07
2023-05-01T04:46:29.609Z,25.07
2023-05-01T04:47:29.553Z,25.07
2023-05-01T04:48:29.584Z,25.07
2023-05-01T04:49:29.626Z,25.08
2023-05-01T04:50:29.665Z,25.08
2023-05-01T04:51:29.660Z,25.07
2023-05-01T04:52:29.688Z,25.05
2023-05-01T04:53:29.725Z,25.09
2023-05-01T04:54:29.716Z,25.08
2023-05-01T04:55:31.123Z,25.09
2023-05-01T04:56:29.773Z,25.07
2023-05-01T04:57:29.810Z,25.09
2023-05-01T04:58:29.803Z,25.07
2023-05-01T04:59:29.807Z,25.05
2023-05-01T05:00:29.884Z,25.08
2023-05-01T05:01:30.024Z,25.09
2023-05-01T05:02:29.988Z,25.07
2023-05-01T05:03:29.982Z,25.11
2023-05-01T05:04:29.948Z,25.08
2023-05-01T05:05:29.953Z,25.11
2023-05-01T05:06:30.036Z,25.09
2023-05-01T05:07:30.366Z,25.11
2023-05-01T05:08:30.056Z,25.11
2023-05-01T05:09:30.089Z,25.07
2023-05-01T05:10:30.099Z,25.09
2023-05-01T05:11:30.073Z,25.11
2023-05-01T05:12:30.139Z,25.11
2023-05-01T05:13:30.122Z,25.12
2023-05-01T05:14:30.177Z,25.11
2023-05-01T05:15:30.199Z,25.11
2023-05-01T05:16:30.278Z,25.09
2023-05-01T05:17:30.263Z,25.11
2023-05-01T05:18:30.252Z,25.12
2023-05-01T05:19:30.281Z,25.12
2023-05-01T05:20:30.310Z,25.11
2023-05-01T05:21:30.333Z,25.11
2023-05-01T05:22:30.386Z,25.12
2023-05-01T05:23:30.358Z,25.09
2023-05-01T05:24:30.387Z,25.09
2023-05-01T05:25:30.391Z,25.12
2023-05-01T05:26:30.404Z,25.12
2023-05-01T05:27:30.463Z,25.12
2023-05-01T05:28:30.451Z,25.15
2023-05-01T05:29:30.449Z,25.12
2023-05-01T05:30:30.515Z,25.12
2023-05-01T05:31:30.562Z,25.12
2023-05-01T05:32:30.568Z,25.15
2023-05-01T05:33:30.525Z,25.12
2023-05-01T05:34:30.622Z,25.15
2023-05-01T05:35:30.586Z,25.15
2023-05-01T05:36:30.569Z,25.15
2023-05-01T05:37:30.606Z,25.14
2023-05-01T05:38:30.611Z,25.17
2023-05-01T05:39:30.651Z,25.17
2023-05-01T05:40:30.662Z,25.15
2023-05-01T05:41:30.683Z,25.18
2023-05-01T05:42:30.733Z,25.17
2023-05-01T05:43:30.719Z,25.17
2023-05-01T05:44:30.725Z,25.15
2023-05-01T05:45:30.792Z,25.17
2023-05-01T05:46:30.847Z,25.17
2023-05-01T05:47:30.814Z,25.18
2023-05-01T05:48:30.813Z,25.18
2023-05-01T05:49:30.828Z,25.21
2023-05-01T05:50:30.818Z,25.21
2023-05-01T05:51:30.861Z,25.19
2023-05-01T05:52:31.007Z,25.19
2023-05-01T05:53:30.865Z,25.19
2023-05-01T05:54:30.866Z,25.19
2023-05-01T05:55:30.873Z,25.22
2023-05-01T05:56:30.933Z,25.22
2023-05-01T05:57:30.932Z,25.21
2023-05-01T05:58:30.948Z,25.19
2023-05-01T05:59:30.953Z,25.19
2023-05-01T06:00:30.991Z,25.21
2023-05-01T06:01:30.959Z,25.22
2023-05-01T06:02:31.151Z,25.21
2023-05-01T06:03:31.094Z,25.19
2023-05-01T06:04:30.976Z,25.22
2023-05-01T06:05:31.025Z,25.22
2023-05-01T06:06:31.056Z,25.23
2023-05-01T06:07:31.028Z,25.25
2023-05-01T06:08:31.037Z,25.23
2023-05-01T06:09:31.049Z,25.26
2023-05-01T06:10:31.048Z,25.26
2023-05-01T06:11:31.042Z,25.28
2023-05-01T06:12:31.077Z,25.26
2023-05-01T06:13:31.078Z,25.25
2023-05-01T06:14:31.109Z,25.28
2023-05-01T06:15:31.070Z,25.25
2023-05-01T06:16:31.198Z,25.26
2023-05-01T06:17:31.174Z,25.26
2023-05-01T06:18:31.102Z,25.28
2023-05-01T06:19:31.074Z,25.28
2023-05-01T06:20:31.081Z,25.29
2023-05-01T06:21:31.092Z,25.29
2023-05-01T06:22:31.130Z,25.32
2023-05-01T06:23:31.108Z,25.31
2023-05-01T06:24:31.112Z,25.32
2023-05-01T06:25:31.138Z,25.32
2023-05-01T06:26:31.067Z,25.32
2023-05-01T06:27:31.120Z,25.32
2023-05-01T06:28:31.075Z,25.33
2023-05-01T06:29:31.078Z,25.33
2023-05-01T06:30:31.073Z,25.35
2023-05-01T06:31:31.122Z,25.33
2023-05-01T06:32:31.106Z,25.33
2023-05-01T06:33:31.093Z,25.35
2023-05-01T06:34:31.092Z,25.33
2023-05-01T06:35:31.118Z,25.38
2023-05-01T06:36:31.123Z,25.35
2023-05-01T06:37:31.132Z,25.38
2023-05-01T06:38:31.140Z,25.36
2023-05-01T06:39:31.065Z,25.39
2023-05-01T06:40:31.104Z,25.41
2023-05-01T06:41:31.117Z,25.39
2023-05-01T06:42:31.095Z,25.38
2023-05-01T06:43:31.153Z,25.38
2023-05-01T06:44:32.775Z,25.41
2023-05-01T06:45:31.110Z,25.42
2023-05-01T06:46:31.208Z,25.42
2023-05-01T06:47:31.152Z,25.42
2023-05-01T06:48:31.099Z,25.42
2023-05-01T06:49:31.095Z,25.41
2023-05-01T06:50:31.073Z,25.42
2023-05-01T06:51:31.069Z,25.45
2023-05-01T06:52:31.088Z,25.42
2023-05-01T06:53:31.080Z,25.41
2023-05-01T06:54:31.098Z,25.43
2023-05-01T06:55:31.499Z,25.41
2023-05-01T06:56:31.153Z,25.42
2023-05-01T06:57:31.152Z,25.41
2023-05-01T06:58:31.148Z,25.41
2023-05-01T06:59:31.179Z,25.41
2023-05-01T07:00:31.217Z,25.43
2023-05-01T07:01:32.695Z,25.41
2023-05-01T07:02:31.230Z,25.43
2023-05-01T07:03:31.170Z,25.42
2023-05-01T07:04:31.132Z,25.42
2023-05-01T07:05:31.167Z,25.41
2023-05-01T07:06:31.147Z,25.43
2023-05-01T07:07:31.167Z,25.43
2023-05-01T07:08:31.146Z,25.43
2023-05-01T07:09:31.137Z,25.45
2023-05-01T07:10:31.102Z,25.43
2023-05-01T07:11:31.097Z,25.48
2023-05-01T07:12:31.117Z,25.43
2023-05-01T07:13:31.096Z,25.45
2023-05-01T07:14:31.101Z,25.46
2023-05-01T07:15:31.056Z,25.49
2023-05-01T07:16:31.147Z,25.48
2023-05-01T07:17:31.109Z,25.46
2023-05-01T07:18:31.037Z,25.48
2023-05-01T07:19:31.048Z,25.48
2023-05-01T07:20:31.069Z,25.46
2023-05-01T07:21:31.024Z,25.49
2023-05-01T07:22:31.103Z,25.49
2023-05-01T07:23:31.017Z,25.49
2023-05-01T07:24:31.022Z,25.49
2023-05-01T07:25:31.008Z,25.52
2023-05-01T07:26:30.996Z,25.50
2023-05-01T07:27:31.003Z,25.50
2023-05-01T07:28:30.975Z,25.50
2023-05-01T07:29:31.021Z,25.50
2023-05-01T07:30:30.954Z,25.50
2023-05-01T07:31:31.018Z,25.49
2023-05-01T07:32:31.005Z,25.52
2023-05-01T07:33:30.958Z,25.52
2023-05-01T07:34:30.943Z,25.50
2023-05-01T07:35:30.958Z,25.50
2023-05-01T07:36:30.940Z,25.53
2023-05-01T07:37:30.970Z,25.53
2023-05-01T07:38:30.942Z,25.52
2023-05-01T07:39:30.908Z,25.52
2023-05-01T07:40:30.939Z,25.52
2023-05-01T07:41:30.881Z,25.50
2023-05-01T07:42:30.897Z,25.50
2023-05-01T07:43:30.914Z,25.52
2023-05-01T07:44:30.877Z,25.52
2023-05-01T07:45:30.926Z,25.53
2023-05-01T07:46:30.951Z,25.54
2023-05-01T07:47:30.974Z,25.53
2023-05-01T07:48:30.876Z,25.56
2023-05-01T07:49:30.906Z,25.54
2023-05-01T07:50:30.862Z,25.53
2023-05-01T07:51:30.829Z,25.54
2023-05-01T07:52:30.829Z,25.58
2023-05-01T07:53:30.855Z,25.54
2023-05-01T07:54:30.813Z,25.56
2023-05-01T07:55:30.813Z,25.56
2023-05-01T07:56:30.807Z,25.58
2023-05-01T07:57:30.804Z,25.56
2023-05-01T07:58:30.786Z,25.58
2023-05-01T07:59:30.784Z,25.58
2023-05-01T08:00:30.759Z,25.61
2023-05-01T08:01:30.770Z,25.61
2023-05-01T08:02:31.063Z,25.59
2023-05-01T08:03:30.907Z,25.61
2023-05-01T08:04:30.823Z,25.61
2023-05-01T08:05:30.709Z,25.61
2023-05-01T08:06:30.758Z,25.59
2023-05-01T08:07:30.688Z,25.59
2023-05-01T08:08:30.729Z,25.61
2023-05-01T08:09:30.779Z,25.61
2023-05-01T08:10:30.855Z,25.61
2023-05-01T08:11:30.927Z,25.62
2023-05-01T08:12:31.006Z,25.62
2023-05-01T08:13:31.048Z,25.62
2023-05-01T08:14:31.166Z,25.62
2023-05-01T08:15:31.148Z,25.62
2023-05-01T08:16:31.395Z,25.65
2023-05-01T08:17:31.290Z,25.65
2023-05-01T08:18:31.378Z,25.65
2023-05-01T08:19:31.420Z,25.68
2023-05-01T08:20:31.483Z,25.69
2023-05-01T08:21:31.537Z,25.69
2023-05-01T08:22:31.588Z,25.70
2023-05-01T08:23:31.650Z,25.72
2023-05-01T08:24:31.724Z,25.72
2023-05-01T08:25:31.796Z,25.69
2023-05-01T08:26:31.845Z,25.70
2023-05-01T08:27:31.920Z,25.72
2023-05-01T08:28:31.961Z,25.70
2023-05-01T08:29:32.022Z,25.72
2023-05-01T08:30:32.075Z,25.73
2023-05-01T08:31:32.204Z,25.73
2023-05-01T08:32:32.309Z,25.76
2023-05-01T08:33:32.221Z,25.72
2023-05-01T08:34:32.344Z,25.73
2023-05-01T08:35:32.356Z,25.72
2023-05-01T08:36:32.395Z,25.75
2023-05-01T08:37:32.463Z,25.73
2023-05-01T08:38:32.486Z,25.75
2023-05-01T08:39:32.567Z,25.73
2023-05-01T08:40:32.602Z,25.72
2023-05-01T08:41:32.684Z,25.75
2023-05-01T08:42:32.739Z,25.77
2023-05-01T08:43:32.818Z,25.76
2023-05-01T08:44:32.829Z,25.73
2023-05-01T08:45:32.849Z,25.75
2023-05-01T08:46:32.969Z,25.75
2023-05-01T08:47:32.997Z,25.76
2023-05-01T08:48:33.033Z,25.76
2023-05-01T08:49:33.104Z,25.76
2023-05-01T08:50:33.145Z,25.73
2023-05-01T08:51:33.185Z,25.77
2023-05-01T08:52:33.254Z,25.76
2023-05-01T08:53:33.248Z,25.75
2023-05-01T08:54:33.368Z,25.76
2023-05-01T08:55:33.374Z,25.76
2023-05-01T08:56:33.419Z,25.76
2023-05-01T08:57:33.481Z,25.77
2023-05-01T08:58:33.500Z,25.79
2023-05-01T08:59:33.559Z,25.79
2023-05-01T09:00:33.625Z,25.80
2023-05-01T09:01:33.728Z,25.79
2023-05-01T09:02:33.763Z,25.80
2023-05-01T09:03:33.771Z,25.80
2023-05-01T09:04:33.770Z,25.80
2023-05-01T09:05:33.836Z,25.82
2023-05-01T09:06:34.018Z,25.85
2023-05-01T09:07:33.926Z,25.83
2023-05-01T09:08:33.955Z,25.85
2023-05-01T09:09:34.003Z,25.86
2023-05-01T09:10:34.050Z,25.87
2023-05-01T09:11:34.070Z,25.86
2023-05-01T09:12:34.152Z,25.85
2023-05-01T09:13:34.127Z,25.87
2023-05-01T09:14:34.172Z,25.86
2023-05-01T09:15:34.203Z,25.86
2023-05-01T09:16:34.327Z,25.86
2023-05-01T09:17:34.336Z,25.87
2023-05-01T09:18:34.331Z,25.87
2023-05-01T09:19:34.397Z,25.85
2023-05-01T09:20:34.423Z,25.87
2023-05-01T09:21:34.488Z,25.87
2023-05-01T09:22:34.556Z,25.87
2023-05-01T09:23:34.523Z,25.87
2023-05-01T09:24:34.562Z,25.89
2023-05-01T09:25:34.622Z,25.89
2023-05-01T09:26:34.661Z,25.92
2023-05-01T09:27:34.709Z,25.89
2023-05-01T09:28:34.700Z,25.89
2023-05-01T09:29:34.782Z,25.90
2023-05-01T09:30:34.795Z,25.89
2023-05-01T09:31:34.896Z,25.90
2023-05-01T09:32:34.995Z,25.93
2023-05-01T09:33:34.913Z,25.89
2023-05-01T09:34:34.965Z,25.93
2023-05-01T09:35:34.967Z,25.92
2023-05-01T09:36:35.013Z,25.92
2023-05-01T09:37:35.059Z,25.92
2023-05-01T09:38:35.099Z,25.93
2023-05-01T09:39:35.092Z,25.93
2023-05-01T09:40:35.174Z,25.93
2023-05-01T09:41:35.172Z,25.95
2023-05-01T09:42:35.219Z,25.95
2023-05-01T09:43:35.243Z,25.93
2023-05-01T09:44:35.258Z,25.95
2023-05-01T09:45:35.328Z,25.93
2023-05-01T09:46:35.419Z,25.96
2023-05-01T09:47:35.410Z,25.95
2023-05-01T09:48:36.266Z,25.97
2023-05-01T09:49:35.454Z,25.95
2023-05-01T09:50:35.481Z,25.99
2023-05-01T09:51:35.490Z,25.99
2023-05-01T09:52:35.562Z,25.97
2023-05-01T09:53:35.564Z,25.99
2023-05-01T09:54:35.569Z,25.97
2023-05-01T09:55:35.587Z,26.00
2023-05-01T09:56:35.622Z,26.00
2023-05-01T09:57:35.663Z,26.00
2023-05-01T09:58:35.664Z,25.99
2023-05-01T09:59:35.720Z,26.00
2023-05-01T10:00:35.762Z,26.03
2023-05-01T10:01:35.853Z,25.99
2023-05-01T10:02:35.829Z,26.00
2023-05-01T10:03:35.929Z,26.00
2023-05-01T10:04:35.851Z,26.01
2023-05-01T10:05:35.861Z,26.04
2023-05-01T10:06:35.984Z,26.04
2023-05-01T10:07:35.923Z,26.03
2023-05-01T10:08:35.913Z,26.03
2023-05-01T10:09:35.949Z,26.04
2023-05-01T10:10:35.982Z,26.04
2023-05-01T10:11:36.039Z,26.04
2023-05-01T10:12:36.023Z,26.04
2023-05-01T10:13:36.081Z,26.04
2023-05-01T10:14:36.120Z,26.06
2023-05-01T10:15:36.130Z,26.07
2023-05-01T10:16:36.220Z,26.06
2023-05-01T10:17:36.193Z,26.04
2023-05-01T10:18:36.184Z,26.04
2023-05-01T10:19:36.235Z,26.06
2023-05-01T10:20:36.238Z,26.06
2023-05-01T10:21:36.329Z,26.07
2023-05-01T10:22:36.358Z,26.07
2023-05-01T10:23:36.349Z,26.08
2023-05-01T10:24:36.342Z,26.07
2023-05-01T10:25:36.375Z,26.06
2023-05-01T10:26:36.405Z,26.08
2023-05-01T10:27:36.423Z,26.07
2023-05-01T10:28:36.450Z,26.07
2023-05-01T10:29:36.463Z,26.07
2023-05-01T10:30:36.533Z,26.10
2023-05-01T10:31:36.558Z,26.10
2023-05-01T10:32:36.629Z,26.08
2023-05-01T10:33:36.597Z,26.08
2023-05-01T10:34:36.595Z,26.06
2023-05-01T10:35:36.625Z,26.06
2023-05-01T10:36:36.650Z,26.07
2023-05-01T10:37:36.678Z,26.03
2023-05-01T10:38:36.680Z,26.03
2023-05-01T10:39:36.771Z,26.01
2023-05-01T10:40:36.756Z,26.01
2023-05-01T10:41:36.769Z,26.00
2023-05-01T10:42:36.836Z,26.00
2023-05-01T10:43:36.856Z,26.01
2023-05-01T10:44:36.861Z,25.97
2023-05-01T10:45:36.896Z,25.99
2023-05-01T10:46:36.929Z,25.99
2023-05-01T10:47:36.993Z,25.99
2023-05-01T10:48:36.997Z,25.99
2023-05-01T10:49:37.072Z,25.99
2023-05-01T10:50:37.077Z,26.01
2023-05-01T10:51:37.081Z,26.01
2023-05-01T10:52:37.112Z,26.00
2023-05-01T10:53:37.173Z,26.00
2023-05-01T10:54:37.186Z,25.96
2023-05-01T10:55:37.279Z,26.00
2023-05-01T10:56:37.228Z,25.99
2023-05-01T10:57:37.278Z,26.00
2023-05-01T10:58:37.291Z,25.97
2023-05-01T10:59:37.312Z,25.97
2023-05-01T11:00:37.336Z,25.96
2023-05-01T11:01:37.467Z,25.97
2023-05-01T11:02:37.432Z,25.97
2023-05-01T11:03:37.479Z,25.96
2023-05-01T11:04:37.469Z,25.96
2023-05-01T11:05:38.707Z,25.96
2023-05-01T11:06:37.704Z,25.96
2023-05-01T11:07:37.578Z,25.97
2023-05-01T11:08:37.586Z,25.97
2023-05-01T11:09:37.623Z,25.97
2023-05-01T11:10:37.636Z,26.03
2023-05-01T11:11:37.659Z,25.99
2023-05-01T11:12:37.691Z,26.00
2023-05-01T11:13:37.802Z,26.01
2023-05-01T11:14:37.747Z,26.01
2023-05-01T11:15:37.767Z,26.01
2023-05-01T11:16:38.025Z,26.06
2023-05-01T11:17:37.848Z,26.04
2023-05-01T11:18:37.860Z,26.07
2023-05-01T11:19:37.866Z,26.07
2023-05-01T11:20:37.873Z,26.06
2023-05-01T11:21:37.865Z,26.08
2023-05-01T11:22:37.946Z,26.08
2023-05-01T11:23:37.940Z,26.10
2023-05-01T11:24:37.961Z,26.10
2023-05-01T11:25:37.987Z,26.08
2023-05-01T11:26:38.001Z,26.10
2023-05-01T11:27:38.009Z,26.12
2023-05-01T11:28:38.010Z,26.12
2023-05-01T11:29:38.117Z,26.13
2023-05-01T11:30:38.019Z,26.12
2023-05-01T11:31:38.137Z,26.15
2023-05-01T11:32:38.197Z,26.13
2023-05-01T11:33:38.095Z,26.13
2023-05-01T11:34:38.096Z,26.16
2023-05-01T11:35:38.094Z,26.13
2023-05-01T11:36:38.103Z,26.13
2023-05-01T11:37:38.097Z,26.13
2023-05-01T11:38:38.128Z,26.15
2023-05-01T11:39:38.174Z,26.13
2023-05-01T11:40:38.164Z,26.12
2023-05-01T11:41:38.154Z,26.13
2023-05-01T11:42:38.212Z,26.12
2023-05-01T11:43:38.192Z,26.13
2023-05-01T11:44:38.195Z,26.10
2023-05-01T11:45:38.262Z,26.10
2023-05-01T11:46:38.272Z,26.12
2023-05-01T11:47:38.255Z,26.13
2023-05-01T11:48:38.279Z,26.13
2023-05-01T11:49:38.295Z,26.13
2023-05-01T11:50:38.291Z,26.16
2023-05-01T11:51:38.279Z,26.15
2023-05-01T11:52:38.287Z,26.13
2023-05-01T11:53:38.289Z,26.15
2023-05-01T11:54:38.293Z,26.16
2023-05-01T11:55:38.292Z,26.16
2023-05-01T11:56:38.335Z,26.17
2023-05-01T11:57:38.309Z,26.16
2023-05-01T11:58:38.313Z,26.16
2023-05-01T11:59:38.316Z,26.17
2023-05-01T12:00:38.406Z,26.19
2023-05-01T12:01:38.327Z,26.19
2023-05-01T12:02:38.579Z,26.17
2023-05-01T12:03:38.466Z,26.16
2023-05-01T12:04:38.458Z,26.17
2023-05-01T12:05:38.393Z,26.16
2023-05-01T12:06:38.455Z,26.16
2023-05-01T12:07:38.384Z,26.17
2023-05-01T12:08:38.419Z,26.16
2023-05-01T12:09:38.406Z,26.16
2023-05-01T12:10:38.410Z,26.17
2023-05-01T12:11:38.400Z,26.16
2023-05-01T12:12:38.404Z,26.16
2023-05-01T12:13:38.408Z,26.20
2023-05-01T12:14:38.414Z,26.17
2023-05-01T12:15:38.444Z,26.17
2023-05-01T12:16:38.494Z,26.19
2023-05-01T12:17:38.503Z,26.20
2023-05-01T12:18:38.487Z,26.20
2023-05-01T12:19:38.488Z,26.21
2023-05-01T12:20:38.474Z,26.19
2023-05-01T12:21:38.480Z,26.20
2023-05-01T12:22:38.510Z,26.19
2023-05-01T12:23:38.558Z,26.17
2023-05-01T12:24:38.558Z,26.20
2023-05-01T12:25:38.556Z,26.17
2023-05-01T12:26:38.569Z,26.17
2023-05-01T12:27:38.537Z,26.17
2023-05-01T12:28:38.564Z,26.19
2023-05-01T12:29:38.589Z,26.19
2023-05-01T12:30:38.569Z,26.20
2023-05-01T12:31:38.584Z,26.16
2023-05-01T12:32:38.720Z,26.19
2023-05-01T12:33:38.615Z,26.20
2023-05-01T12:34:38.600Z,26.19
2023-05-01T12:35:38.621Z,26.20
2023-05-01T12:36:38.604Z,26.20
2023-05-01T12:37:38.619Z,26.20
2023-05-01T12:38:38.607Z,26.23
2023-05-01T12:39:38.644Z,26.20
2023-05-01T12:40:38.625Z,26.21
2023-05-01T12:41:38.637Z,26.23
2023-05-01T12:42:38.648Z,26.26
2023-05-01T12:43:38.650Z,26.23
2023-05-01T12:44:38.657Z,26.23
2023-05-01T12:45:38.660Z,26.20
2023-05-01T12:46:38.719Z,26.26
2023-05-01T12:47:38.744Z,26.27
2023-05-01T12:48:38.693Z,26.23
2023-05-01T12:49:38.703Z,26.26
2023-05-01T12:50:38.673Z,26.24
2023-05-01T12:51:38.715Z,26.26
2023-05-01T12:52:38.685Z,26.26